sensor_id;sensor_type;location;lat;lon;timestamp;temperature;humidity
79301;SHT31;68755;51.984;5.646;2024-03-02T00:02:26;10.3;61.0
79301;SHT31;68755;51.984;5.646;2024-03-02T00:04:56;10.3;61.0
79301;SHT31;68755;51.984;5.646;2024-03-02T00:07:25;10.3;61.2
79301;SHT31;68755;51.984;5.646;2024-03-02T00:09:55;10.4;60.8
79301;SHT31;68755;51.984;5.646;2024-03-02T00:12:25;10.4;60.8
79301;SHT31;68755;51.984;5.646;2024-03-02T00:14:56;10.4;61.0
79301;SHT31;68755;51.984;5.646;2024-03-02T00:17:29;10.4;61.0
79301;SHT31;68755;51.984;5.646;2024-03-02T00:19:59;10.4;60.8
79301;SHT31;68755;51.984;5.646;2024-03-02T00:22:30;10.4;60.7
79301;SHT31;68755;51.984;5.646;2024-03-02T00:25:00;10.4;60.8
79301;SHT31;68755;51.984;5.646;2024-03-02T00:27:29;10.4;61.0
79301;SHT31;68755;51.984;5.646;2024-03-02T00:30:00;10.4;61.2
79301;SHT31;68755;51.984;5.646;2024-03-02T00:32:30;10.4;61.3
79301;SHT31;68755;51.984;5.646;2024-03-02T00:35:00;10.4;62.0
79301;SHT31;68755;51.984;5.646;2024-03-02T00:37:30;10.4;62.5
79301;SHT31;68755;51.984;5.646;2024-03-02T00:40:00;10.4;62.9
79301;SHT31;68755;51.984;5.646;2024-03-02T00:42:32;10.4;63.1
79301;SHT31;68755;51.984;5.646;2024-03-02T00:45:09;10.4;62.6
79301;SHT31;68755;51.984;5.646;2024-03-02T00:47:39;10.4;62.9
79301;SHT31;68755;51.984;5.646;2024-03-02T00:50:09;10.4;62.4
79301;SHT31;68755;51.984;5.646;2024-03-02T00:52:40;10.4;63.1
79301;SHT31;68755;51.984;5.646;2024-03-02T00:55:11;10.4;63.2
79301;SHT31;68755;51.984;5.646;2024-03-02T00:57:41;10.4;62.7
79301;SHT31;68755;51.984;5.646;2024-03-02T01:00:12;10.4;63.5
79301;SHT31;68755;51.984;5.646;2024-03-02T01:02:45;10.4;64.0
79301;SHT31;68755;51.984;5.646;2024-03-02T01:05:15;10.4;65.0
79301;SHT31;68755;51.984;5.646;2024-03-02T01:07:45;10.4;65.6
79301;SHT31;68755;51.984;5.646;2024-03-02T01:10:16;10.4;65.7
79301;SHT31;68755;51.984;5.646;2024-03-02T01:12:48;10.4;66.0
79301;SHT31;68755;51.984;5.646;2024-03-02T01:15:17;10.4;66.2
79301;SHT31;68755;51.984;5.646;2024-03-02T01:17:48;10.4;66.5
79301;SHT31;68755;51.984;5.646;2024-03-02T01:20:18;10.4;66.5
79301;SHT31;68755;51.984;5.646;2024-03-02T01:22:49;10.4;66.6
79301;SHT31;68755;51.984;5.646;2024-03-02T01:25:20;10.4;66.6
79301;SHT31;68755;51.984;5.646;2024-03-02T01:27:50;10.4;66.7
79301;SHT31;68755;51.984;5.646;2024-03-02T01:30:20;10.4;66.9
79301;SHT31;68755;51.984;5.646;2024-03-02T01:32:51;10.4;67.2
79301;SHT31;68755;51.984;5.646;2024-03-02T01:35:21;10.4;67.3
79301;SHT31;68755;51.984;5.646;2024-03-02T01:37:51;10.3;67.6
79301;SHT31;68755;51.984;5.646;2024-03-02T01:40:23;10.3;67.8
79301;SHT31;68755;51.984;5.646;2024-03-02T01:42:54;10.3;68.0
79301;SHT31;68755;51.984;5.646;2024-03-02T01:45:25;10.3;67.8
79301;SHT31;68755;51.984;5.646;2024-03-02T01:47:55;10.3;67.7
79301;SHT31;68755;51.984;5.646;2024-03-02T01:50:29;10.3;67.8
79301;SHT31;68755;51.984;5.646;2024-03-02T01:53:00;10.2;67.7
79301;SHT31;68755;51.984;5.646;2024-03-02T01:55:32;10.2;67.8
79301;SHT31;68755;51.984;5.646;2024-03-02T01:58:04;10.2;67.8
79301;SHT31;68755;51.984;5.646;2024-03-02T02:00:36;10.2;67.9
79301;SHT31;68755;51.984;5.646;2024-03-02T02:03:06;10.2;68.0
79301;SHT31;68755;51.984;5.646;2024-03-02T02:05:36;10.2;67.8
79301;SHT31;68755;51.984;5.646;2024-03-02T02:08:06;10.2;67.8
79301;SHT31;68755;51.984;5.646;2024-03-02T02:10:36;10.2;67.9
79301;SHT31;68755;51.984;5.646;2024-03-02T02:13:06;10.1;67.9
79301;SHT31;68755;51.984;5.646;2024-03-02T02:15:36;10.1;68.0
79301;SHT31;68755;51.984;5.646;2024-03-02T02:18:06;10.1;68.0
79301;SHT31;68755;51.984;5.646;2024-03-02T02:20:35;10.1;68.1
79301;SHT31;68755;51.984;5.646;2024-03-02T02:23:05;10.1;68.1
79301;SHT31;68755;51.984;5.646;2024-03-02T02:25:37;10.1;68.0
79301;SHT31;68755;51.984;5.646;2024-03-02T02:28:07;10.1;68.0
79301;SHT31;68755;51.984;5.646;2024-03-02T02:30:37;10.1;68.0
79301;SHT31;68755;51.984;5.646;2024-03-02T02:33:07;10.0;68.3
79301;SHT31;68755;51.984;5.646;2024-03-02T02:35:39;10.0;68.3
79301;SHT31;68755;51.984;5.646;2024-03-02T02:38:11;10.0;69.3
79301;SHT31;68755;51.984;5.646;2024-03-02T02:40:41;10.0;69.9
79301;SHT31;68755;51.984;5.646;2024-03-02T02:43:10;10.0;70.1
79301;SHT31;68755;51.984;5.646;2024-03-02T02:45:40;10.0;70.6
79301;SHT31;68755;51.984;5.646;2024-03-02T02:48:09;10.0;70.4
79301;SHT31;68755;51.984;5.646;2024-03-02T02:50:39;10.0;70.8
79301;SHT31;68755;51.984;5.646;2024-03-02T02:53:10;10.0;71.0
79301;SHT31;68755;51.984;5.646;2024-03-02T02:55:41;10.0;71.2
79301;SHT31;68755;51.984;5.646;2024-03-02T02:58:11;9.9;71.2
79301;SHT31;68755;51.984;5.646;2024-03-02T03:00:41;9.9;71.1
79301;SHT31;68755;51.984;5.646;2024-03-02T03:03:10;9.9;71.6
79301;SHT31;68755;51.984;5.646;2024-03-02T03:05:40;9.9;71.8
79301;SHT31;68755;51.984;5.646;2024-03-02T03:08:10;9.9;72.0
79301;SHT31;68755;51.984;5.646;2024-03-02T03:10:39;9.9;71.8
79301;SHT31;68755;51.984;5.646;2024-03-02T03:13:09;9.9;72.0
79301;SHT31;68755;51.984;5.646;2024-03-02T03:15:39;9.9;72.0
79301;SHT31;68755;51.984;5.646;2024-03-02T03:18:09;9.9;71.5
79301;SHT31;68755;51.984;5.646;2024-03-02T03:20:39;9.8;71.7
79301;SHT31;68755;51.984;5.646;2024-03-02T03:23:08;9.8;71.6
79301;SHT31;68755;51.984;5.646;2024-03-02T03:25:42;9.8;71.4
79301;SHT31;68755;51.984;5.646;2024-03-02T03:28:13;9.8;71.4
79301;SHT31;68755;51.984;5.646;2024-03-02T03:30:42;9.8;71.7
79301;SHT31;68755;51.984;5.646;2024-03-02T03:33:12;9.8;71.6
79301;SHT31;68755;51.984;5.646;2024-03-02T03:35:41;9.7;71.7
79301;SHT31;68755;51.984;5.646;2024-03-02T03:38:11;9.7;71.6
79301;SHT31;68755;51.984;5.646;2024-03-02T03:40:41;9.7;71.3
79301;SHT31;68755;51.984;5.646;2024-03-02T03:43:12;9.7;70.7
79301;SHT31;68755;51.984;5.646;2024-03-02T03:45:42;9.7;71.1
79301;SHT31;68755;51.984;5.646;2024-03-02T03:48:12;9.7;70.9
79301;SHT31;68755;51.984;5.646;2024-03-02T03:50:41;9.7;70.7
79301;SHT31;68755;51.984;5.646;2024-03-02T03:53:13;9.6;70.7
79301;SHT31;68755;51.984;5.646;2024-03-02T03:55:44;9.6;70.8
79301;SHT31;68755;51.984;5.646;2024-03-02T03:58:14;9.6;70.7
79301;SHT31;68755;51.984;5.646;2024-03-02T04:00:46;9.6;70.9
79301;SHT31;68755;51.984;5.646;2024-03-02T04:03:16;9.6;70.7
79301;SHT31;68755;51.984;5.646;2024-03-02T04:05:45;9.6;70.9
79301;SHT31;68755;51.984;5.646;2024-03-02T04:08:15;9.6;71.1
79301;SHT31;68755;51.984;5.646;2024-03-02T04:10:44;9.6;71.1
79301;SHT31;68755;51.984;5.646;2024-03-02T04:13:14;9.6;70.7
79301;SHT31;68755;51.984;5.646;2024-03-02T04:15:44;9.5;70.7
79301;SHT31;68755;51.984;5.646;2024-03-02T04:18:14;9.5;70.5
79301;SHT31;68755;51.984;5.646;2024-03-02T04:20:43;9.5;70.4
79301;SHT31;68755;51.984;5.646;2024-03-02T04:23:13;9.5;70.3
79301;SHT31;68755;51.984;5.646;2024-03-02T04:25:46;9.5;70.5
79301;SHT31;68755;51.984;5.646;2024-03-02T04:28:15;9.4;70.2
79301;SHT31;68755;51.984;5.646;2024-03-02T04:30:45;9.4;70.1
79301;SHT31;68755;51.984;5.646;2024-03-02T04:33:14;9.4;70.1
79301;SHT31;68755;51.984;5.646;2024-03-02T04:35:44;9.4;70.2
79301;SHT31;68755;51.984;5.646;2024-03-02T04:38:14;9.4;70.3
79301;SHT31;68755;51.984;5.646;2024-03-02T04:40:44;9.4;70.0
79301;SHT31;68755;51.984;5.646;2024-03-02T04:43:14;9.4;69.7
79301;SHT31;68755;51.984;5.646;2024-03-02T04:45:44;9.4;70.0
79301;SHT31;68755;51.984;5.646;2024-03-02T04:48:14;9.4;69.6
79301;SHT31;68755;51.984;5.646;2024-03-02T04:50:43;9.3;69.6
79301;SHT31;68755;51.984;5.646;2024-03-02T04:53:13;9.3;69.4
79301;SHT31;68755;51.984;5.646;2024-03-02T04:55:43;9.3;69.8
79301;SHT31;68755;51.984;5.646;2024-03-02T04:58:34;9.3;69.6
79301;SHT31;68755;51.984;5.646;2024-03-02T05:01:04;9.3;70.0
79301;SHT31;68755;51.984;5.646;2024-03-02T05:03:33;9.3;69.8
79301;SHT31;68755;51.984;5.646;2024-03-02T05:06:03;9.3;69.8
79301;SHT31;68755;51.984;5.646;2024-03-02T05:08:33;9.3;69.6
79301;SHT31;68755;51.984;5.646;2024-03-02T05:11:04;9.3;69.7
79301;SHT31;68755;51.984;5.646;2024-03-02T05:14:03;9.3;69.7
79301;SHT31;68755;51.984;5.646;2024-03-02T05:16:35;9.3;69.7
79301;SHT31;68755;51.984;5.646;2024-03-02T05:19:05;9.3;69.7
79301;SHT31;68755;51.984;5.646;2024-03-02T05:21:38;9.2;69.8
79301;SHT31;68755;51.984;5.646;2024-03-02T05:24:07;9.2;69.7
79301;SHT31;68755;51.984;5.646;2024-03-02T05:26:38;9.2;69.9
79301;SHT31;68755;51.984;5.646;2024-03-02T05:29:07;9.1;70.2
79301;SHT31;68755;51.984;5.646;2024-03-02T05:31:37;9.1;70.5
79301;SHT31;68755;51.984;5.646;2024-03-02T05:34:09;9.1;70.7
79301;SHT31;68755;51.984;5.646;2024-03-02T05:36:39;9.1;70.6
79301;SHT31;68755;51.984;5.646;2024-03-02T05:39:08;9.1;70.7
79301;SHT31;68755;51.984;5.646;2024-03-02T05:41:38;9.1;70.7
79301;SHT31;68755;51.984;5.646;2024-03-02T05:44:08;9.1;70.8
79301;SHT31;68755;51.984;5.646;2024-03-02T05:46:38;9.1;70.9
79301;SHT31;68755;51.984;5.646;2024-03-02T05:49:10;9.1;71.0
79301;SHT31;68755;51.984;5.646;2024-03-02T05:51:39;9.1;71.2
79301;SHT31;68755;51.984;5.646;2024-03-02T05:54:09;9.1;70.9
79301;SHT31;68755;51.984;5.646;2024-03-02T05:56:39;9.1;70.4
79301;SHT31;68755;51.984;5.646;2024-03-02T05:59:09;9.1;70.7
79301;SHT31;68755;51.984;5.646;2024-03-02T06:01:44;9.1;70.2
79301;SHT31;68755;51.984;5.646;2024-03-02T06:04:15;9.1;70.2
79301;SHT31;68755;51.984;5.646;2024-03-02T06:06:45;9.1;70.0
79301;SHT31;68755;51.984;5.646;2024-03-02T06:09:17;9.1;69.5
79301;SHT31;68755;51.984;5.646;2024-03-02T06:11:47;9.1;68.9
79301;SHT31;68755;51.984;5.646;2024-03-02T06:14:19;9.1;69.2
79301;SHT31;68755;51.984;5.646;2024-03-02T06:16:48;9.1;68.7
79301;SHT31;68755;51.984;5.646;2024-03-02T06:19:18;9.0;68.6
79301;SHT31;68755;51.984;5.646;2024-03-02T06:21:47;9.0;68.8
79301;SHT31;68755;51.984;5.646;2024-03-02T06:24:17;9.0;68.8
79301;SHT31;68755;51.984;5.646;2024-03-02T06:26:47;8.9;69.2
79301;SHT31;68755;51.984;5.646;2024-03-02T06:29:16;8.9;69.5
79301;SHT31;68755;51.984;5.646;2024-03-02T06:31:46;8.9;69.7
79301;SHT31;68755;51.984;5.646;2024-03-02T06:34:15;8.9;69.3
79301;SHT31;68755;51.984;5.646;2024-03-02T06:36:45;8.9;69.6
79301;SHT31;68755;51.984;5.646;2024-03-02T06:39:15;8.8;69.2
79301;SHT31;68755;51.984;5.646;2024-03-02T06:41:44;8.8;69.1
79301;SHT31;68755;51.984;5.646;2024-03-02T06:44:15;8.8;69.4
79301;SHT31;68755;51.984;5.646;2024-03-02T06:47:09;8.8;69.4
79301;SHT31;68755;51.984;5.646;2024-03-02T06:49:39;8.8;69.2
79301;SHT31;68755;51.984;5.646;2024-03-02T06:52:08;8.8;69.5
79301;SHT31;68755;51.984;5.646;2024-03-02T06:54:38;8.8;69.1
79301;SHT31;68755;51.984;5.646;2024-03-02T06:57:08;8.8;68.4
79301;SHT31;68755;51.984;5.646;2024-03-02T06:59:37;8.8;68.5
79301;SHT31;68755;51.984;5.646;2024-03-02T07:02:07;8.8;68.8
79301;SHT31;68755;51.984;5.646;2024-03-02T07:04:37;8.8;68.5
79301;SHT31;68755;51.984;5.646;2024-03-02T07:07:07;8.8;68.8
79301;SHT31;68755;51.984;5.646;2024-03-02T07:09:36;8.7;68.9
79301;SHT31;68755;51.984;5.646;2024-03-02T07:12:07;8.7;69.1
79301;SHT31;68755;51.984;5.646;2024-03-02T07:14:39;8.7;69.3
79301;SHT31;68755;51.984;5.646;2024-03-02T07:18:00;8.7;69.2
79301;SHT31;68755;51.984;5.646;2024-03-02T07:20:30;8.7;69.2
79301;SHT31;68755;51.984;5.646;2024-03-02T07:23:00;8.7;69.8
79301;SHT31;68755;51.984;5.646;2024-03-02T07:25:30;8.7;69.6
79301;SHT31;68755;51.984;5.646;2024-03-02T07:28:00;8.7;70.1
79301;SHT31;68755;51.984;5.646;2024-03-02T07:30:30;8.7;70.2
79301;SHT31;68755;51.984;5.646;2024-03-02T07:33:00;8.7;70.3
79301;SHT31;68755;51.984;5.646;2024-03-02T07:35:30;8.7;69.9
79301;SHT31;68755;51.984;5.646;2024-03-02T07:37:59;8.7;70.3
79301;SHT31;68755;51.984;5.646;2024-03-02T07:40:29;8.7;70.5
79301;SHT31;68755;51.984;5.646;2024-03-02T07:42:59;8.7;70.6
79301;SHT31;68755;51.984;5.646;2024-03-02T07:45:28;8.8;70.4
79301;SHT31;68755;51.984;5.646;2024-03-02T07:47:58;8.8;70.5
79301;SHT31;68755;51.984;5.646;2024-03-02T07:50:28;8.8;71.0
79301;SHT31;68755;51.984;5.646;2024-03-02T07:52:58;8.9;70.9
79301;SHT31;68755;51.984;5.646;2024-03-02T07:55:27;8.9;70.7
79301;SHT31;68755;51.984;5.646;2024-03-02T07:57:57;9.0;70.5
79301;SHT31;68755;51.984;5.646;2024-03-02T08:00:27;9.0;70.3
79301;SHT31;68755;51.984;5.646;2024-03-02T08:02:57;9.1;70.5
79301;SHT31;68755;51.984;5.646;2024-03-02T08:05:27;9.2;70.4
79301;SHT31;68755;51.984;5.646;2024-03-02T08:07:57;9.2;69.6
79301;SHT31;68755;51.984;5.646;2024-03-02T08:10:27;9.3;69.2
79301;SHT31;68755;51.984;5.646;2024-03-02T08:12:57;9.3;69.1
79301;SHT31;68755;51.984;5.646;2024-03-02T08:15:26;9.4;69.4
79301;SHT31;68755;51.984;5.646;2024-03-02T08:17:58;9.4;69.5
79301;SHT31;68755;51.984;5.646;2024-03-02T08:20:28;9.4;68.5
79301;SHT31;68755;51.984;5.646;2024-03-02T08:22:58;9.5;68.7
79301;SHT31;68755;51.984;5.646;2024-03-02T08:25:30;9.5;68.7
79301;SHT31;68755;51.984;5.646;2024-03-02T08:28:00;9.5;68.1
79301;SHT31;68755;51.984;5.646;2024-03-02T08:30:30;9.5;67.6
79301;SHT31;68755;51.984;5.646;2024-03-02T08:33:00;9.5;67.4
79301;SHT31;68755;51.984;5.646;2024-03-02T08:35:29;9.6;67.5
79301;SHT31;68755;51.984;5.646;2024-03-02T08:38:03;9.6;66.7
79301;SHT31;68755;51.984;5.646;2024-03-02T08:40:33;9.6;66.4
79301;SHT31;68755;51.984;5.646;2024-03-02T08:43:03;9.6;66.5
79301;SHT31;68755;51.984;5.646;2024-03-02T08:45:35;9.6;65.9
79301;SHT31;68755;51.984;5.646;2024-03-02T08:48:07;9.6;66.4
79301;SHT31;68755;51.984;5.646;2024-03-02T08:50:37;9.6;66.6
79301;SHT31;68755;51.984;5.646;2024-03-02T08:53:07;9.6;66.5
79301;SHT31;68755;51.984;5.646;2024-03-02T08:55:37;9.6;66.0
79301;SHT31;68755;51.984;5.646;2024-03-02T08:58:08;9.6;66.0
79301;SHT31;68755;51.984;5.646;2024-03-02T09:00:38;9.6;66.4
79301;SHT31;68755;51.984;5.646;2024-03-02T09:03:08;9.6;65.6
79301;SHT31;68755;51.984;5.646;2024-03-02T09:05:38;9.6;66.1
79301;SHT31;68755;51.984;5.646;2024-03-02T09:08:11;9.6;65.4
79301;SHT31;68755;51.984;5.646;2024-03-02T09:10:41;9.6;65.6
79301;SHT31;68755;51.984;5.646;2024-03-02T09:13:11;9.6;65.9
79301;SHT31;68755;51.984;5.646;2024-03-02T09:15:41;9.6;65.6
79301;SHT31;68755;51.984;5.646;2024-03-02T09:18:13;9.6;65.7
79301;SHT31;68755;51.984;5.646;2024-03-02T09:20:43;9.7;65.5
79301;SHT31;68755;51.984;5.646;2024-03-02T09:23:14;9.7;65.5
79301;SHT31;68755;51.984;5.646;2024-03-02T09:25:44;9.7;65.2
79301;SHT31;68755;51.984;5.646;2024-03-02T09:28:15;9.8;64.5
79301;SHT31;68755;51.984;5.646;2024-03-02T09:30:45;9.8;65.2
79301;SHT31;68755;51.984;5.646;2024-03-02T09:33:14;9.8;64.3
79301;SHT31;68755;51.984;5.646;2024-03-02T09:35:46;9.9;63.7
79301;SHT31;68755;51.984;5.646;2024-03-02T09:38:18;9.9;64.8
79301;SHT31;68755;51.984;5.646;2024-03-02T09:40:48;9.9;64.4
79301;SHT31;68755;51.984;5.646;2024-03-02T09:43:20;10.0;63.9
79301;SHT31;68755;51.984;5.646;2024-03-02T09:45:51;10.0;64.3
79301;SHT31;68755;51.984;5.646;2024-03-02T09:48:21;10.1;64.1
79301;SHT31;68755;51.984;5.646;2024-03-02T09:50:51;10.1;63.2
79301;SHT31;68755;51.984;5.646;2024-03-02T09:53:22;10.1;63.7
79301;SHT31;68755;51.984;5.646;2024-03-02T09:55:54;10.2;63.8
79301;SHT31;68755;51.984;5.646;2024-03-02T09:58:24;10.2;63.6
79301;SHT31;68755;51.984;5.646;2024-03-02T10:00:54;10.2;62.3
79301;SHT31;68755;51.984;5.646;2024-03-02T10:03:24;10.3;63.1
79301;SHT31;68755;51.984;5.646;2024-03-02T10:05:54;10.3;63.5
79301;SHT31;68755;51.984;5.646;2024-03-02T10:08:24;10.3;63.6
79301;SHT31;68755;51.984;5.646;2024-03-02T10:10:54;10.4;63.2
79301;SHT31;68755;51.984;5.646;2024-03-02T10:13:25;10.4;64.0
79301;SHT31;68755;51.984;5.646;2024-03-02T10:15:54;10.4;63.8
79301;SHT31;68755;51.984;5.646;2024-03-02T10:18:27;10.5;62.5
79301;SHT31;68755;51.984;5.646;2024-03-02T10:21:14;10.5;61.0
79301;SHT31;68755;51.984;5.646;2024-03-02T10:23:44;10.5;60.9
79301;SHT31;68755;51.984;5.646;2024-03-02T10:26:18;10.6;61.5
79301;SHT31;68755;51.984;5.646;2024-03-02T10:28:49;10.6;60.6
79301;SHT31;68755;51.984;5.646;2024-03-02T10:31:24;10.7;59.5
79301;SHT31;68755;51.984;5.646;2024-03-02T10:33:56;10.7;59.7
79301;SHT31;68755;51.984;5.646;2024-03-02T10:36:27;10.7;60.0
79301;SHT31;68755;51.984;5.646;2024-03-02T10:39:01;10.8;58.9
79301;SHT31;68755;51.984;5.646;2024-03-02T10:41:33;10.8;59.3
79301;SHT31;68755;51.984;5.646;2024-03-02T10:44:05;10.8;59.0
79301;SHT31;68755;51.984;5.646;2024-03-02T10:46:37;10.9;58.7
79301;SHT31;68755;51.984;5.646;2024-03-02T10:49:07;10.9;59.2
79301;SHT31;68755;51.984;5.646;2024-03-02T10:51:36;10.9;59.0
79301;SHT31;68755;51.984;5.646;2024-03-02T10:54:06;11.0;57.5
79301;SHT31;68755;51.984;5.646;2024-03-02T10:56:39;11.0;57.0
79301;SHT31;68755;51.984;5.646;2024-03-02T10:59:17;11.0;58.3
79301;SHT31;68755;51.984;5.646;2024-03-02T11:01:55;11.1;58.4
79301;SHT31;68755;51.984;5.646;2024-03-02T11:04:28;11.1;57.6
79301;SHT31;68755;51.984;5.646;2024-03-02T11:07:00;11.2;58.0
79301;SHT31;68755;51.984;5.646;2024-03-02T11:09:33;11.2;58.4
79301;SHT31;68755;51.984;5.646;2024-03-02T11:12:12;11.2;57.7
79301;SHT31;68755;51.984;5.646;2024-03-02T11:14:44;11.3;58.2
79301;SHT31;68755;51.984;5.646;2024-03-02T11:17:16;11.3;58.1
79301;SHT31;68755;51.984;5.646;2024-03-02T11:19:48;11.3;58.3
79301;SHT31;68755;51.984;5.646;2024-03-02T11:22:19;11.4;58.0
79301;SHT31;68755;51.984;5.646;2024-03-02T11:24:52;11.4;57.7
79301;SHT31;68755;51.984;5.646;2024-03-02T11:28:02;11.5;57.8
79301;SHT31;68755;51.984;5.646;2024-03-02T11:30:50;11.5;56.8
79301;SHT31;68755;51.984;5.646;2024-03-02T11:33:27;11.5;56.3
79301;SHT31;68755;51.984;5.646;2024-03-02T11:35:58;11.6;56.9
79301;SHT31;68755;51.984;5.646;2024-03-02T11:38:35;11.6;56.1
79301;SHT31;68755;51.984;5.646;2024-03-02T11:41:06;11.6;56.4
79301;SHT31;68755;51.984;5.646;2024-03-02T11:43:39;11.7;56.9
79301;SHT31;68755;51.984;5.646;2024-03-02T11:46:11;11.7;56.2
79301;SHT31;68755;51.984;5.646;2024-03-02T11:48:41;11.8;54.3
79301;SHT31;68755;51.984;5.646;2024-03-02T11:51:11;11.8;53.2
79301;SHT31;68755;51.984;5.646;2024-03-02T11:53:48;11.8;54.9
79301;SHT31;68755;51.984;5.646;2024-03-02T11:56:19;11.8;53.5
79301;SHT31;68755;51.984;5.646;2024-03-02T11:58:53;11.9;53.3
79301;SHT31;68755;51.984;5.646;2024-03-02T12:01:23;11.9;53.9
79301;SHT31;68755;51.984;5.646;2024-03-02T12:03:56;11.9;54.0
79301;SHT31;68755;51.984;5.646;2024-03-02T12:06:28;12.0;52.2
79301;SHT31;68755;51.984;5.646;2024-03-02T12:08:58;12.0;52.6
79301;SHT31;68755;51.984;5.646;2024-03-02T12:11:30;12.0;53.5
79301;SHT31;68755;51.984;5.646;2024-03-02T12:14:00;12.1;54.3
79301;SHT31;68755;51.984;5.646;2024-03-02T12:16:31;12.1;53.3
79301;SHT31;68755;51.984;5.646;2024-03-02T12:19:05;12.1;53.9
79301;SHT31;68755;51.984;5.646;2024-03-02T12:21:35;12.2;52.9
79301;SHT31;68755;51.984;5.646;2024-03-02T12:24:06;12.2;52.1
79301;SHT31;68755;51.984;5.646;2024-03-02T12:26:36;12.3;53.1
79301;SHT31;68755;51.984;5.646;2024-03-02T12:29:07;12.3;53.4
79301;SHT31;68755;51.984;5.646;2024-03-02T12:31:39;12.4;52.5
79301;SHT31;68755;51.984;5.646;2024-03-02T12:34:09;12.4;53.1
79301;SHT31;68755;51.984;5.646;2024-03-02T12:36:40;12.4;53.5
79301;SHT31;68755;51.984;5.646;2024-03-02T12:39:10;12.5;53.1
79301;SHT31;68755;51.984;5.646;2024-03-02T12:41:41;12.5;53.2
79301;SHT31;68755;51.984;5.646;2024-03-02T12:44:12;12.6;53.8
79301;SHT31;68755;51.984;5.646;2024-03-02T12:46:42;12.6;52.6
79301;SHT31;68755;51.984;5.646;2024-03-02T12:49:13;12.7;52.5
79301;SHT31;68755;51.984;5.646;2024-03-02T12:51:44;12.7;53.1
79301;SHT31;68755;51.984;5.646;2024-03-02T12:54:22;12.7;52.6
79301;SHT31;68755;51.984;5.646;2024-03-02T12:56:56;12.8;52.8
79301;SHT31;68755;51.984;5.646;2024-03-02T12:59:27;12.8;52.2
79301;SHT31;68755;51.984;5.646;2024-03-02T13:01:59;12.8;52.4
79301;SHT31;68755;51.984;5.646;2024-03-02T13:04:29;12.8;52.4
79301;SHT31;68755;51.984;5.646;2024-03-02T13:06:59;12.8;52.3
79301;SHT31;68755;51.984;5.646;2024-03-02T13:09:30;12.8;53.1
79301;SHT31;68755;51.984;5.646;2024-03-02T13:12:01;12.9;51.6
79301;SHT31;68755;51.984;5.646;2024-03-02T13:14:35;12.9;50.7
79301;SHT31;68755;51.984;5.646;2024-03-02T13:17:05;12.9;51.4
79301;SHT31;68755;51.984;5.646;2024-03-02T13:19:35;12.9;51.7
79301;SHT31;68755;51.984;5.646;2024-03-02T13:22:06;12.9;52.2
79301;SHT31;68755;51.984;5.646;2024-03-02T13:24:36;12.9;51.7
79301;SHT31;68755;51.984;5.646;2024-03-02T13:27:06;12.9;51.0
79301;SHT31;68755;51.984;5.646;2024-03-02T13:29:36;13.0;51.6
79301;SHT31;68755;51.984;5.646;2024-03-02T13:32:07;13.0;51.7
79301;SHT31;68755;51.984;5.646;2024-03-02T13:34:37;13.0;52.0
79301;SHT31;68755;51.984;5.646;2024-03-02T13:37:07;13.0;51.3
79301;SHT31;68755;51.984;5.646;2024-03-02T13:39:39;13.1;50.8
79301;SHT31;68755;51.984;5.646;2024-03-02T13:42:10;13.1;52.1
79301;SHT31;68755;51.984;5.646;2024-03-02T13:44:43;13.1;52.4
79301;SHT31;68755;51.984;5.646;2024-03-02T13:47:15;13.1;50.9
79301;SHT31;68755;51.984;5.646;2024-03-02T13:49:46;13.1;51.8
79301;SHT31;68755;51.984;5.646;2024-03-02T13:52:16;13.1;51.5
79301;SHT31;68755;51.984;5.646;2024-03-02T13:54:48;13.2;51.3
79301;SHT31;68755;51.984;5.646;2024-03-02T13:57:20;13.2;50.9
79301;SHT31;68755;51.984;5.646;2024-03-02T13:59:50;13.2;49.6
79301;SHT31;68755;51.984;5.646;2024-03-02T14:02:22;13.2;50.4
79301;SHT31;68755;51.984;5.646;2024-03-02T14:04:54;13.2;50.4
79301;SHT31;68755;51.984;5.646;2024-03-02T14:07:23;13.2;51.0
79301;SHT31;68755;51.984;5.646;2024-03-02T14:09:54;13.3;50.4
79301;SHT31;68755;51.984;5.646;2024-03-02T14:12:25;13.3;50.6
79301;SHT31;68755;51.984;5.646;2024-03-02T14:14:55;13.4;51.4
79301;SHT31;68755;51.984;5.646;2024-03-02T14:17:26;13.4;51.2
79301;SHT31;68755;51.984;5.646;2024-03-02T14:19:56;13.4;50.2
79301;SHT31;68755;51.984;5.646;2024-03-02T14:22:26;13.5;50.2
79301;SHT31;68755;51.984;5.646;2024-03-02T14:24:56;13.5;50.2
79301;SHT31;68755;51.984;5.646;2024-03-02T14:27:26;13.5;50.2
79301;SHT31;68755;51.984;5.646;2024-03-02T14:29:56;13.5;49.0
79301;SHT31;68755;51.984;5.646;2024-03-02T14:32:26;13.5;49.2
79301;SHT31;68755;51.984;5.646;2024-03-02T14:34:56;13.6;48.6
79301;SHT31;68755;51.984;5.646;2024-03-02T14:37:26;13.6;48.9
79301;SHT31;68755;51.984;5.646;2024-03-02T14:39:56;13.6;48.6
79301;SHT31;68755;51.984;5.646;2024-03-02T14:42:26;13.6;49.1
79301;SHT31;68755;51.984;5.646;2024-03-02T14:44:59;13.6;49.2
79301;SHT31;68755;51.984;5.646;2024-03-02T14:47:32;13.6;49.6
79301;SHT31;68755;51.984;5.646;2024-03-02T14:50:03;13.5;50.2
79301;SHT31;68755;51.984;5.646;2024-03-02T14:52:34;13.5;49.9
79301;SHT31;68755;51.984;5.646;2024-03-02T14:55:07;13.5;50.0
79301;SHT31;68755;51.984;5.646;2024-03-02T14:57:37;13.5;50.9
79301;SHT31;68755;51.984;5.646;2024-03-02T15:00:07;13.5;50.9
79301;SHT31;68755;51.984;5.646;2024-03-02T15:02:39;13.5;50.5
79301;SHT31;68755;51.984;5.646;2024-03-02T15:05:09;13.5;50.7
79301;SHT31;68755;51.984;5.646;2024-03-02T15:07:39;13.5;51.0
79301;SHT31;68755;51.984;5.646;2024-03-02T15:10:09;13.5;50.9
79301;SHT31;68755;51.984;5.646;2024-03-02T15:12:39;13.5;50.9
79301;SHT31;68755;51.984;5.646;2024-03-02T15:15:09;13.5;51.0
79301;SHT31;68755;51.984;5.646;2024-03-02T15:17:40;13.5;50.6
79301;SHT31;68755;51.984;5.646;2024-03-02T15:20:10;13.5;50.4
79301;SHT31;68755;51.984;5.646;2024-03-02T15:22:41;13.5;50.9
79301;SHT31;68755;51.984;5.646;2024-03-02T15:25:10;13.5;51.3
79301;SHT31;68755;51.984;5.646;2024-03-02T15:27:41;13.5;51.6
79301;SHT31;68755;51.984;5.646;2024-03-02T15:30:11;13.5;51.4
79301;SHT31;68755;51.984;5.646;2024-03-02T15:32:41;13.5;52.0
79301;SHT31;68755;51.984;5.646;2024-03-02T15:35:12;13.5;52.4
79301;SHT31;68755;51.984;5.646;2024-03-02T15:37:44;13.5;52.9
79301;SHT31;68755;51.984;5.646;2024-03-02T15:40:14;13.5;52.8
79301;SHT31;68755;51.984;5.646;2024-03-02T15:42:44;13.5;53.0
79301;SHT31;68755;51.984;5.646;2024-03-02T15:45:13;13.5;52.7
79301;SHT31;68755;51.984;5.646;2024-03-02T15:47:43;13.5;52.9
79301;SHT31;68755;51.984;5.646;2024-03-02T15:50:13;13.5;53.2
79301;SHT31;68755;51.984;5.646;2024-03-02T15:52:42;13.4;53.3
79301;SHT31;68755;51.984;5.646;2024-03-02T15:55:13;13.4;54.0
79301;SHT31;68755;51.984;5.646;2024-03-02T15:57:43;13.4;53.8
79301;SHT31;68755;51.984;5.646;2024-03-02T16:00:13;13.4;54.4
79301;SHT31;68755;51.984;5.646;2024-03-02T16:02:43;13.4;54.7
79301;SHT31;68755;51.984;5.646;2024-03-02T16:05:13;13.4;54.8
79301;SHT31;68755;51.984;5.646;2024-03-02T16:07:44;13.4;55.2
79301;SHT31;68755;51.984;5.646;2024-03-02T16:10:14;13.4;55.2
79301;SHT31;68755;51.984;5.646;2024-03-02T16:12:49;13.4;55.5
79301;SHT31;68755;51.984;5.646;2024-03-02T16:15:19;13.4;55.7
79301;SHT31;68755;51.984;5.646;2024-03-02T16:17:49;13.4;55.8
79301;SHT31;68755;51.984;5.646;2024-03-02T16:20:19;13.4;55.4
79301;SHT31;68755;51.984;5.646;2024-03-02T16:22:48;13.4;55.5
79301;SHT31;68755;51.984;5.646;2024-03-02T16:25:18;13.4;55.0
79301;SHT31;68755;51.984;5.646;2024-03-02T16:27:48;13.4;55.3
79301;SHT31;68755;51.984;5.646;2024-03-02T16:30:17;13.4;55.6
79301;SHT31;68755;51.984;5.646;2024-03-02T16:32:48;13.4;56.0